Time;durP1;ratioP1;P1;durP2;ratioP2;P2;SDS_P1;SDS_P2;PMS_P1;PMS_P2;Temp;Humidity;BMP_temperature;BMP_pressure;BME280_temperature;BME280_humidity;BME280_pressure;Samples;Min_cycle;Max_cycle;Signal;HPM_P1;HPM_P2
2020/12/05 00:01:41;;;;;;;7.38;5.57;;;3.30;91.80;;;;;;5049069;28;20052;-42
2020/12/05 00:04:07;;;;;;;7.20;6.13;;;3.30;91.80;;;;;;5048216;28;20108;-42
2020/12/05 00:06:32;;;;;;;10.98;8.40;;;3.30;91.80;;;;;;5049120;28;20029;-43
2020/12/05 00:08:58;;;;;;;11.15;8.20;;;3.30;91.80;;;;;;5048625;28;20372;-42
2020/12/05 00:11:30;;;;;;;14.20;10.48;;;3.40;91.80;;;;;;5047562;28;20029;-42
2020/12/05 00:13:55;;;;;;;13.63;10.23;;;3.40;91.80;;;;;;5049286;28;20020;-43
2020/12/05 00:16:21;;;;;;;11.95;8.90;;;3.40;91.80;;;;;;5048236;28;20515;-43
2020/12/05 00:18:48;;;;;;;10.77;8.20;;;3.40;91.80;;;;;;5047941;28;20025;-41
2020/12/05 00:21:17;;;;;;;9.52;7.18;;;3.50;91.80;;;;;;5048076;28;20082;-41
2020/12/05 00:23:43;;;;;;;9.50;6.90;;;3.40;91.70;;;;;;5048280;28;20035;-42
2020/12/05 00:26:08;;;;;;;9.57;7.25;;;3.40;91.70;;;;;;5047713;28;20372;-42
2020/12/05 00:28:34;;;;;;;11.75;7.25;;;3.40;91.70;;;;;;5048366;28;20484;-43
2020/12/05 00:30:59;;;;;;;10.65;7.30;;;3.40;91.70;;;;;;5048341;28;20688;-42
2020/12/05 00:33:25;;;;;;;13.45;6.60;;;3.40;91.80;;;;;;5044036;28;20360;-42
2020/12/05 00:35:50;;;;;;;10.90;6.95;;;3.40;91.90;;;;;;5047904;28;20029;-43
2020/12/05 00:38:15;;;;;;;13.10;7.03;;;3.40;91.90;;;;;;5047804;28;20047;-41
2020/12/05 00:40:41;;;;;;;10.93;6.85;;;3.50;91.90;;;;;;5047990;28;20017;-42
2020/12/05 00:43:06;;;;;;;10.75;6.90;;;3.50;91.90;;;;;;5047838;28;20520;-42
2020/12/05 00:45:32;;;;;;;9.27;6.30;;;3.50;92.00;;;;;;5048047;28;20033;-42
2020/12/05 00:47:57;;;;;;;10.68;7.25;;;3.50;92.00;;;;;;5047276;28;20074;-43
2020/12/05 00:50:23;;;;;;;12.07;6.28;;;3.60;92.00;;;;;;5047341;28;20119;-41
2020/12/05 00:52:48;;;;;;;8.32;5.80;;;3.60;92.00;;;;;;5047656;28;20063;-40
2020/12/05 00:55:14;;;;;;;8.77;5.70;;;3.60;92.00;;;;;;5047296;28;20055;-41
2020/12/05 00:57:39;;;;;;;7.13;5.07;;;3.60;92.00;;;;;;5047948;28;20035;-42
2020/12/05 01:00:07;;;;;;;7.38;4.50;;;3.60;91.90;;;;;;5047858;28;20025;-40
2020/12/05 01:02:32;;;;;;;10.57;4.55;;;3.50;91.90;;;;;;5047742;28;20048;-43
2020/12/05 01:04:58;;;;;;;6.88;3.97;;;3.50;91.90;;;;;;5047633;28;20071;-42
2020/12/05 01:07:25;;;;;;;5.50;4.07;;;3.40;91.90;;;;;;5047231;28;20025;-40
2020/12/05 01:09:52;;;;;;;4.95;4.10;;;3.30;92.00;;;;;;5047924;28;20534;-42
2020/12/05 01:12:17;;;;;;;6.88;4.60;;;3.20;92.00;;;;;;5047131;28;20774;-43
2020/12/05 01:14:43;;;;;;;7.32;5.07;;;3.10;92.10;;;;;;5047594;28;20017;-43
2020/12/05 01:17:08;;;;;;;8.35;5.03;;;3.10;92.20;;;;;;5047015;28;20070;-42
2020/12/05 01:19:34;;;;;;;6.57;4.60;;;3.00;92.20;;;;;;5047677;28;20385;-42
2020/12/05 01:21:59;;;;;;;6.13;4.40;;;3.00;92.30;;;;;;5047156;28;20017;-43
2020/12/05 01:24:25;;;;;;;7.57;5.10;;;3.00;92.30;;;;;;5046827;28;20036;-42
2020/12/05 01:26:50;;;;;;;8.13;5.20;;;3.00;92.30;;;;;;5047511;28;20025;-42
2020/12/05 01:29:16;;;;;;;6.72;5.10;;;2.90;92.30;;;;;;5046943;28;20025;-42
2020/12/05 01:31:41;;;;;;;10.07;5.28;;;2.90;92.30;;;;;;5047764;28;20080;-42
2020/12/05 01:34:07;;;;;;;8.50;5.03;;;2.80;92.30;;;;;;5047223;28;20036;-42
2020/12/05 01:36:33;;;;;;;8.63;5.10;;;2.70;92.40;;;;;;5047182;28;20033;-43
2020/12/05 01:38:58;;;;;;;8.57;5.60;;;2.70;92.40;;;;;;5047715;28;20033;-43
2020/12/05 01:41:24;;;;;;;13.18;6.82;;;2.60;92.40;;;;;;5046927;28;20095;-43
2020/12/05 01:43:49;;;;;;;17.48;10.18;;;2.60;92.50;;;;;;5046873;28;20527;-44
2020/12/05 01:46:38;;;;;;;10.88;7.55;;;2.70;92.60;;;;;;5046675;28;20021;-42
2020/12/05 01:49:11;;;;;;;12.90;6.57;;;2.70;92.60;;;;;;5046915;28;20090;-43
2020/12/05 01:51:37;;;;;;;10.25;5.80;;;2.70;92.50;;;;;;5047429;28;20061;-42
2020/12/05 01:54:03;;;;;;;11.85;6.03;;;2.70;92.50;;;;;;5047522;28;20061;-43
2020/12/05 01:56:29;;;;;;;9.98;5.85;;;2.60;92.50;;;;;;5046253;28;20024;-42
2020/12/05 01:58:55;;;;;;;8.95;5.30;;;2.60;92.50;;;;;;5047334;28;20502;-42
2020/12/05 02:01:22;;;;;;;8.07;5.25;;;2.60;92.60;;;;;;5049840;28;20029;-41
2020/12/05 02:03:53;;;;;;;8.70;5.45;;;2.60;92.60;;;;;;5050736;28;20440;-42
2020/12/05 02:06:48;;;;;;;10.85;4.95;;;2.70;92.60;;;;;;5050788;28;20112;-42
2020/12/05 02:09:21;;;;;;;10.75;6.80;;;2.70;92.60;;;;;;5050745;28;20021;-42
2020/12/05 02:11:58;;;;;;;12.38;6.68;;;2.70;92.60;;;;;;5050512;28;20555;-43
2020/12/05 02:14:27;;;;;;;10.77;6.40;;;2.70;92.60;;;;;;5049947;28;20484;-41
2020/12/05 02:16:58;;;;;;;16.23;9.40;;;2.70;92.60;;;;;;5051217;28;20036;-39
2020/12/05 02:19:29;;;;;;;13.40;7.72;;;2.70;92.60;;;;;;5049776;28;20035;-42
2020/12/05 02:21:58;;;;;;;12.70;7.47;;;2.70;92.60;;;;;;5050813;28;20029;-42
2020/12/05 02:24:24;;;;;;;10.60;6.25;;;2.70;92.60;;;;;;5049542;28;20988;-43
2020/12/05 02:26:50;;;;;;;10.95;5.50;;;2.80;92.60;;;;;;5050740;28;20021;-42
2020/12/05 02:29:18;;;;;;;8.98;5.78;;;2.80;92.60;;;;;;5050325;28;20036;-42
2020/12/05 02:31:44;;;;;;;6.82;5.20;;;2.90;92.80;;;;;;5050413;28;20060;-43
2020/12/05 02:34:10;;;;;;;8.13;4.60;;;2.90;92.50;;;;;;5049979;28;20021;-42
2020/12/05 02:36:38;;;;;;;8.48;5.07;;;3.00;92.50;;;;;;5050730;28;20025;-42
2020/12/05 02:39:08;;;;;;;6.90;4.60;;;3.00;92.50;;;;;;5049882;28;20067;-42
2020/12/05 02:41:41;;;;;;;9.20;4.30;;;3.00;92.50;;;;;;5051066;28;20048;-42
2020/12/05 02:44:07;;;;;;;6.93;4.40;;;3.10;92.50;;;;;;5050022;28;20420;-43
2020/12/05 02:46:33;;;;;;;5.90;4.10;;;3.10;92.40;;;;;;5049959;28;20052;-42
2020/12/05 02:48:59;;;;;;;9.05;5.63;;;3.10;92.50;;;;;;5050414;28;20028;-41
2020/12/05 02:51:25;;;;;;;9.10;6.05;;;3.20;92.50;;;;;;5049908;28;20128;-42
2020/12/05 02:53:51;;;;;;;11.57;7.07;;;3.20;92.40;;;;;;5049826;28;20104;-42
2020/12/05 02:56:17;;;;;;;11.95;7.20;;;3.20;92.50;;;;;;5050184;28;20538;-42
2020/12/05 02:58:45;;;;;;;8.45;6.20;;;3.20;92.40;;;;;;5050344;28;20075;-42
2020/12/05 03:01:10;;;;;;;7.70;5.70;;;3.20;92.40;;;;;;5049314;28;20025;-42
2020/12/05 03:03:36;;;;;;;6.82;4.50;;;3.20;92.50;;;;;;5050283;28;20031;-43
2020/12/05 03:06:01;;;;;;;7.10;4.53;;;3.20;92.40;;;;;;5049902;28;20625;-43
2020/12/05 03:08:27;;;;;;;5.82;4.20;;;3.20;92.50;;;;;;5049267;28;20029;-42
2020/12/05 03:10:52;;;;;;;5.60;3.75;;;3.20;92.50;;;;;;5049941;28;20021;-43
2020/12/05 03:13:18;;;;;;;5.93;3.58;;;3.30;92.50;;;;;;5049087;28;20017;-43
2020/12/05 03:15:43;;;;;;;5.10;3.58;;;3.30;92.50;;;;;;5049613;28;20178;-43
2020/12/05 03:18:09;;;;;;;3.97;3.40;;;3.30;92.40;;;;;;5049619;28;20041;-43
2020/12/05 03:20:34;;;;;;;4.65;3.40;;;3.20;92.40;;;;;;5049344;28;20029;-42
2020/12/05 03:23:00;;;;;;;6.07;3.50;;;3.30;92.40;;;;;;5049675;28;20021;-43
2020/12/05 03:25:25;;;;;;;6.50;3.80;;;3.30;92.50;;;;;;5049543;28;20613;-43
2020/12/05 03:27:51;;;;;;;5.72;4.30;;;3.30;92.60;;;;;;5049093;28;20025;-42
2020/12/05 03:30:16;;;;;;;5.63;4.25;;;3.30;92.50;;;;;;5048882;28;20032;-44
2020/12/05 03:32:43;;;;;;;5.50;3.85;;;3.30;92.40;;;;;;5049956;28;20036;-45
2020/12/05 03:35:08;;;;;;;5.28;3.60;;;3.30;92.40;;;;;;5048403;28;20393;-45
2020/12/05 03:37:34;;;;;;;5.15;3.67;;;3.30;92.40;;;;;;5049405;28;20033;-41
2020/12/05 03:40:00;;;;;;;5.03;3.15;;;3.30;92.40;;;;;;5049481;28;20037;-42
2020/12/05 03:42:26;;;;;;;4.57;3.35;;;3.30;92.30;;;;;;5048428;28;20045;-43
2020/12/05 03:44:51;;;;;;;4.95;3.20;;;3.30;92.40;;;;;;5049332;28;20124;-42
2020/12/05 03:47:17;;;;;;;4.15;3.53;;;3.20;92.40;;;;;;5048553;28;20130;-40
2020/12/05 03:49:42;;;;;;;5.30;3.22;;;3.20;92.50;;;;;;5049222;28;20029;-42
2020/12/05 03:52:08;;;;;;;4.85;3.60;;;3.20;92.50;;;;;;5048775;28;20488;-42
2020/12/05 03:54:34;;;;;;;4.20;3.38;;;3.10;92.50;;;;;;5049842;28;20021;-42
2020/12/05 03:57:00;;;;;;;5.35;3.42;;;3.10;92.50;;;;;;5048320;28;20029;-42
2020/12/05 03:59:25;;;;;;;4.47;3.00;;;3.10;92.50;;;;;;5048339;28;20372;-43
2020/12/05 04:01:51;;;;;;;3.17;2.88;;;3.00;92.50;;;;;;5049252;28;20028;-42
2020/12/05 04:04:16;;;;;;;5.35;3.08;;;2.90;92.50;;;;;;5047849;28;20250;-43
2020/12/05 04:06:42;;;;;;;3.67;3.05;;;2.90;92.60;;;;;;5048735;28;20048;-42
2020/12/05 04:09:08;;;;;;;3.35;2.90;;;2.80;92.60;;;;;;5048516;28;20032;-42
2020/12/05 04:11:38;;;;;;;3.85;3.45;;;2.70;92.70;;;;;;5048498;28;20025;-43
2020/12/05 04:14:05;;;;;;;3.45;2.67;;;2.70;92.80;;;;;;5048657;28;20075;-42
2020/12/05 04:16:30;;;;;;;3.08;2.72;;;2.60;92.80;;;;;;5048072;28;20754;-42
2020/12/05 04:18:56;;;;;;;4.43;2.83;;;2.60;92.80;;;;;;5048497;28;20028;-43
2020/12/05 04:21:21;;;;;;;3.75;3.00;;;2.60;92.80;;;;;;5047865;28;20040;-43
2020/12/05 04:23:46;;;;;;;3.92;3.13;;;2.50;92.90;;;;;;5047545;28;20041;-42
2020/12/05 04:26:12;;;;;;;3.58;2.90;;;2.50;92.90;;;;;;5048213;28;20032;-43
2020/12/05 04:28:37;;;;;;;4.25;3.13;;;2.50;92.90;;;;;;5048408;28;20025;-42
2020/12/05 04:31:03;;;;;;;6.07;3.83;;;2.50;92.90;;;;;;5047947;28;20025;-42
2020/12/05 04:33:29;;;;;;;6.28;3.70;;;2.50;93.00;;;;;;5047792;28;20021;-42
2020/12/05 04:35:54;;;;;;;5.10;3.65;;;2.50;93.00;;;;;;5048187;28;20484;-42
2020/12/05 04:38:20;;;;;;;5.07;3.15;;;2.50;93.00;;;;;;5047178;28;20032;-42
2020/12/05 04:40:47;;;;;;;5.22;3.60;;;2.50;93.00;;;;;;5048619;28;20033;-41
2020/12/05 04:43:13;;;;;;;5.60;3.10;;;2.50;93.00;;;;;;5047538;28;20053;-43
2020/12/05 04:45:39;;;;;;;4.90;3.50;;;2.50;93.00;;;;;;5047716;28;20522;-42
2020/12/05 04:48:06;;;;;;;4.60;3.35;;;2.50;93.10;;;;;;5048295;28;20032;-44
2020/12/05 04:50:34;;;;;;;3.80;3.40;;;2.50;93.00;;;;;;5048025;28;20033;-42
2020/12/05 04:53:10;;;;;;;5.45;3.65;;;2.50;93.10;;;;;;5047670;28;20033;-42
2020/12/05 04:55:41;;;;;;;4.85;3.70;;;2.40;93.10;;;;;;5048169;28;20032;-42
2020/12/05 04:58:19;;;;;;;4.18;3.72;;;2.40;93.10;;;;;;5047984;28;20049;-42
2020/12/05 05:00:45;;;;;;;6.85;3.90;;;2.40;93.10;;;;;;5047595;28;20029;-43
2020/12/05 05:03:14;;;;;;;5.93;3.95;;;2.40;93.10;;;;;;5047382;28;20120;-42
2020/12/05 05:05:40;;;;;;;4.53;3.50;;;2.40;93.10;;;;;;5047917;28;20512;-43
2020/12/05 05:08:06;;;;;;;4.35;3.63;;;2.30;93.10;;;;;;5047313;28;20033;-42
2020/12/05 05:10:33;;;;;;;5.38;3.92;;;2.30;93.10;;;;;;5047494;28;20032;-43
2020/12/05 05:13:22;;;;;;;6.68;3.55;;;2.30;93.20;;;;;;5047619;28;20100;-42
2020/12/05 05:15:47;;;;;;;5.38;4.35;;;2.20;93.20;;;;;;5047862;28;20554;-42
2020/12/05 05:18:13;;;;;;;6.03;4.55;;;2.20;93.20;;;;;;5047350;28;20061;-42
2020/12/05 05:20:41;;;;;;;5.15;4.07;;;2.20;93.30;;;;;;5047407;28;20014;-42
2020/12/05 05:23:19;;;;;;;6.13;4.30;;;2.20;93.30;;;;;;5047194;28;20476;-42
2020/12/05 05:25:57;;;;;;;4.18;3.50;;;2.20;93.30;;;;;;5047302;28;20036;-43
2020/12/05 05:28:28;;;;;;;4.95;3.65;;;2.10;93.30;;;;;;5046704;28;20033;-42
2020/12/05 05:30:54;;;;;;;5.53;4.05;;;2.10;93.30;;;;;;5047754;28;20086;-41
2020/12/05 05:33:20;;;;;;;6.30;4.03;;;2.10;93.30;;;;;;5046984;28;20025;-40
2020/12/05 05:35:45;;;;;;;5.68;4.65;;;2.10;93.40;;;;;;5050789;28;20499;-42
2020/12/05 05:38:20;;;;;;;6.03;4.75;;;2.10;93.40;;;;;;5051151;28;20159;-43
2020/12/05 05:40:46;;;;;;;5.57;4.75;;;2.10;93.40;;;;;;5051898;28;20104;-43
2020/12/05 05:43:18;;;;;;;6.38;4.65;;;2.10;93.40;;;;;;5050842;28;20055;-40
2020/12/05 05:45:44;;;;;;;6.35;4.53;;;2.10;93.40;;;;;;5051678;28;20071;-41
2020/12/05 05:48:11;;;;;;;5.50;4.05;;;2.10;93.40;;;;;;5050418;28;20033;-43
2020/12/05 05:50:37;;;;;;;6.38;4.97;;;2.10;93.40;;;;;;5051809;28;20025;-43
2020/12/05 05:53:03;;;;;;;7.57;4.82;;;2.00;93.40;;;;;;5051341;28;20507;-43
2020/12/05 05:55:46;;;;;;;5.35;4.20;;;2.00;93.40;;;;;;5050855;28;20669;-42
2020/12/05 05:58:15;;;;;;;8.05;4.13;;;2.00;93.50;;;;;;5051120;28;20024;-43
2020/12/05 06:00:45;;;;;;;4.57;4.10;;;2.10;93.50;;;;;;5051310;28;20060;-42
2020/12/05 06:03:22;;;;;;;5.57;4.60;;;2.10;93.50;;;;;;5050344;28;20029;-42
2020/12/05 06:05:56;;;;;;;6.10;5.00;;;2.10;93.80;;;;;;5051697;28;20442;-43
2020/12/05 06:08:26;;;;;;;6.13;4.70;;;2.10;93.50;;;;;;5050788;28;20025;-42
2020/12/05 06:11:00;;;;;;;8.20;4.30;;;2.10;93.50;;;;;;5050837;28;20189;-42
2020/12/05 06:13:30;;;;;;;5.45;4.50;;;2.10;93.40;;;;;;5050579;28;20075;-42
2020/12/05 06:15:57;;;;;;;5.35;4.55;;;2.10;93.40;;;;;;5051146;28;20025;-42
2020/12/05 06:18:23;;;;;;;5.00;4.50;;;2.10;93.50;;;;;;5050002;28;20025;-43
2020/12/05 06:20:49;;;;;;;5.25;4.53;;;2.00;93.50;;;;;;5051047;28;20029;-42
2020/12/05 06:23:42;;;;;;;5.57;4.80;;;2.00;93.50;;;;;;5050218;28;20630;-42
2020/12/05 06:26:08;;;;;;;7.75;5.90;;;2.00;93.50;;;;;;5050308;28;20091;-42
2020/12/05 06:28:38;;;;;;;5.65;4.70;;;2.00;93.50;;;;;;5050678;28;20116;-42
2020/12/05 06:31:04;;;;;;;6.90;4.90;;;1.90;93.50;;;;;;5050714;28;20124;-43
2020/12/05 06:33:42;;;;;;;6.35;4.90;;;1.90;93.50;;;;;;5050391;28;20116;-42
2020/12/05 06:36:26;;;;;;;5.60;4.65;;;1.90;93.50;;;;;;5050372;28;20029;-43
2020/12/05 06:39:09;;;;;;;5.78;4.88;;;1.80;93.60;;;;;;5050252;28;20081;-43
2020/12/05 06:41:40;;;;;;;8.38;6.10;;;1.80;93.80;;;;;;5050989;28;20060;-42
2020/12/05 06:44:20;;;;;;;12.68;8.63;;;1.70;93.60;;;;;;5050137;28;20049;-42
2020/12/05 06:46:58;;;;;;;13.10;8.20;;;1.70;93.70;;;;;;5049492;28;20385;-42
2020/12/05 06:49:38;;;;;;;13.63;9.55;;;1.70;93.80;;;;;;5050512;28;20083;-42
2020/12/05 06:52:36;;;;;;;15.30;10.27;;;1.70;94.00;;;;;;5050000;28;20033;-43
2020/12/05 06:55:13;;;;;;;11.05;8.60;;;1.70;93.80;;;;;;5016545;28;20110;-43
2020/12/05 06:57:42;;;;;;;15.05;8.52;;;1.80;94.20;;;;;;5050174;28;20047;-42
2020/12/05 07:00:19;;;;;;;12.05;8.10;;;1.80;93.90;;;;;;5049791;28;20380;-42
2020/12/05 07:02:51;;;;;;;10.07;7.38;;;1.80;93.90;;;;;;5050340;28;20020;-43
2020/12/05 07:05:20;;;;;;;8.18;6.40;;;1.80;94.10;;;;;;5049587;28;20373;-41
2020/12/05 07:07:59;;;;;;;8.10;6.60;;;1.80;93.90;;;;;;5050025;28;20029;-42
2020/12/05 07:10:49;;;;;;;7.35;6.05;;;1.80;93.90;;;;;;5049729;28;20480;-42
2020/12/05 07:13:26;;;;;;;8.73;7.00;;;1.90;93.90;;;;;;5049035;28;20024;-42
2020/12/05 07:16:16;;;;;;;9.13;7.20;;;1.90;93.90;;;;;;5049984;28;20025;-43
2020/12/05 07:18:44;;;;;;;8.50;7.00;;;1.90;93.90;;;;;;5050196;28;20128;-41
2020/12/05 07:21:10;;;;;;;11.48;7.82;;;2.00;93.90;;;;;;5048931;28;20032;-43
2020/12/05 07:23:36;;;;;;;14.05;9.23;;;2.00;93.90;;;;;;5050015;28;20033;-42
2020/12/05 07:26:05;;;;;;;12.63;8.98;;;2.00;93.90;;;;;;5049634;28;20675;-42
2020/12/05 07:28:31;;;;;;;12.52;8.10;;;2.10;94.00;;;;;;5048945;28;20021;-42
2020/12/05 07:30:56;;;;;;;11.20;8.15;;;2.20;94.00;;;;;;5049799;28;20017;-44
2020/12/05 07:33:22;;;;;;;13.85;9.63;;;2.20;93.90;;;;;;5049355;28;20428;-42
2020/12/05 07:36:06;;;;;;;16.17;11.43;;;2.20;93.90;;;;;;5049426;28;20032;-42
2020/12/05 07:38:34;;;;;;;11.32;9.23;;;2.30;94.00;;;;;;5049443;28;20116;-43
2020/12/05 07:41:09;;;;;;;12.20;8.80;;;2.30;94.00;;;;;;5048949;28;20127;-43
2020/12/05 07:43:35;;;;;;;13.55;9.32;;;2.40;94.00;;;;;;5049219;28;20472;-42
2020/12/05 07:46:09;;;;;;;11.07;8.57;;;2.40;94.00;;;;;;5049175;28;20079;-43
2020/12/05 07:48:35;;;;;;;10.90;8.05;;;2.40;94.00;;;;;;5048961;28;20387;-43
2020/12/05 07:51:02;;;;;;;8.90;7.18;;;2.50;94.00;;;;;;5048684;28;20021;-43
2020/12/05 07:53:31;;;;;;;8.85;7.03;;;2.50;94.00;;;;;;5045635;28;20033;-43
2020/12/05 07:55:58;;;;;;;8.77;6.95;;;2.50;93.90;;;;;;5048727;28;20028;-42
2020/12/05 07:58:24;;;;;;;9.85;6.80;;;2.60;93.90;;;;;;5045839;28;20029;-43
2020/12/05 08:00:54;;;;;;;8.05;6.28;;;2.60;93.90;;;;;;5047806;28;20017;-41
2020/12/05 08:03:44;;;;;;;8.50;6.25;;;2.60;93.90;;;;;;5047040;28;20025;-42
2020/12/05 08:06:27;;;;;;;7.43;6.13;;;2.60;93.90;;;;;;5047626;28;20041;-42
2020/12/05 08:09:02;;;;;;;7.72;5.90;;;2.60;93.90;;;;;;5047684;28;20473;-43
2020/12/05 08:11:39;;;;;;;7.57;5.95;;;2.60;93.80;;;;;;5047281;28;20025;-43
2020/12/05 08:14:05;;;;;;;6.43;5.40;;;2.60;93.80;;;;;;5047832;28;20804;-41
2020/12/05 08:16:36;;;;;;;7.50;5.60;;;2.60;93.80;;;;;;5047612;28;20032;-42
2020/12/05 08:19:03;;;;;;;6.28;5.63;;;2.60;93.90;;;;;;5046502;28;20021;-42
2020/12/05 08:21:29;;;;;;;7.57;5.70;;;2.60;93.80;;;;;;5046603;28;20041;-42
2020/12/05 08:24:05;;;;;;;10.88;6.55;;;2.60;93.80;;;;;;5047361;28;20033;-42
2020/12/05 08:26:31;;;;;;;8.60;6.15;;;2.60;93.90;;;;;;5047755;28;20028;-41
2020/12/05 08:28:58;;;;;;;8.73;5.70;;;2.60;93.90;;;;;;5047785;28;20028;-43
2020/12/05 08:31:24;;;;;;;6.60;5.50;;;2.60;93.90;;;;;;5046924;28;20025;-41
2020/12/05 08:33:50;;;;;;;7.78;6.13;;;2.70;93.90;;;;;;5061418;28;20032;-43
2020/12/05 08:36:34;;;;;;;6.55;5.38;;;2.80;93.90;;;;;;5067896;28;20059;-42
2020/12/05 08:39:11;;;;;;;5.93;4.88;;;2.90;93.80;;;;;;5067872;28;20108;-42
2020/12/05 08:41:42;;;;;;;6.57;4.75;;;2.90;93.80;;;;;;5067942;28;20037;-42
2020/12/05 08:44:19;;;;;;;8.50;5.93;;;3.00;93.80;;;;;;5067183;28;20056;-42
2020/12/05 08:46:45;;;;;;;8.43;6.45;;;3.00;93.70;;;;;;5068447;28;20052;-43
2020/12/05 08:49:19;;;;;;;7.50;5.95;;;3.00;93.60;;;;;;5067600;28;20025;-43
2020/12/05 08:51:51;;;;;;;7.32;6.60;;;3.10;93.60;;;;;;5067494;28;20025;-42
2020/12/05 08:54:16;;;;;;;9.70;6.38;;;3.00;93.60;;;;;;5067963;28;20418;-42
2020/12/05 08:56:42;;;;;;;6.60;5.78;;;3.00;93.60;;;;;;5068316;28;20025;-42
2020/12/05 08:59:08;;;;;;;9.45;5.68;;;3.00;93.60;;;;;;5067332;28;20597;-45
2020/12/05 09:01:39;;;;;;;8.55;5.40;;;3.00;93.60;;;;;;5067814;28;20052;-43
2020/12/05 09:04:04;;;;;;;7.57;5.55;;;3.00;93.60;;;;;;5067859;28;20036;-43
2020/12/05 09:06:30;;;;;;;7.40;5.50;;;3.00;93.60;;;;;;5066954;28;20020;-42
2020/12/05 09:08:55;;;;;;;5.88;4.93;;;3.00;93.70;;;;;;5068190;28;20024;-41
2020/12/05 09:11:22;;;;;;;6.55;5.85;;;3.00;93.70;;;;;;5069955;28;20099;-42
2020/12/05 09:13:48;;;;;;;9.75;6.22;;;3.00;93.80;;;;;;5068469;28;20024;-46
2020/12/05 09:16:14;;;;;;;6.88;5.70;;;3.00;93.80;;;;;;5067157;28;20772;-43
2020/12/05 09:18:41;;;;;;;7.00;5.78;;;3.00;93.80;;;;;;5067755;28;20107;-41
2020/12/05 09:21:14;;;;;;;6.72;5.07;;;3.00;93.80;;;;;;5067027;28;20021;-42
2020/12/05 09:23:39;;;;;;;;;;;3.10;93.80;;;;;;5068497;28;20107;-43
2020/12/05 09:26:06;;;;;;;6.65;5.03;;;3.10;93.80;;;;;;5067378;28;20006;-42
2020/12/05 09:28:33;;;;;;;6.85;5.43;;;3.10;93.70;;;;;;5067086;28;20078;-41
2020/12/05 09:31:05;;;;;;;5.28;4.53;;;3.10;93.70;;;;;;5065193;28;20435;-43
2020/12/05 09:33:31;;;;;;;7.40;5.70;;;3.10;93.70;;;;;;5047742;28;20029;-43
2020/12/05 09:35:56;;;;;;;7.38;5.93;;;3.10;93.80;;;;;;5047304;28;20086;-42
2020/12/05 09:38:22;;;;;;;6.47;5.57;;;3.20;93.80;;;;;;5047232;28;20028;-41
2020/12/05 09:40:47;;;;;;;7.85;5.20;;;3.20;93.70;;;;;;5047208;28;20641;-43
2020/12/05 09:43:13;;;;;;;5.85;5.00;;;3.20;93.70;;;;;;5046491;28;20049;-42
2020/12/05 09:45:39;;;;;;;6.90;5.53;;;3.30;93.70;;;;;;5047739;28;20036;-43
2020/12/05 09:48:08;;;;;;;6.93;5.78;;;3.30;93.80;;;;;;5046938;28;20025;-42
2020/12/05 09:50:33;;;;;;;6.82;5.72;;;3.40;93.70;;;;;;5047171;28;20056;-42
2020/12/05 09:52:59;;;;;;;7.65;6.00;;;3.50;93.70;;;;;;5047049;28;20072;-43
2020/12/05 09:55:25;;;;;;;7.32;5.50;;;3.50;93.70;;;;;;5046236;28;20025;-41
2020/12/05 09:57:51;;;;;;;6.32;5.68;;;3.50;93.80;;;;;;5047305;28;20070;-42
2020/12/05 10:00:17;;;;;;;8.75;7.15;;;3.60;93.90;;;;;;5046533;28;20025;-41
2020/12/05 10:02:42;;;;;;;7.57;6.45;;;3.70;93.80;;;;;;5047013;28;20127;-42
2020/12/05 10:05:10;;;;;;;11.65;7.35;;;3.70;93.70;;;;;;5045825;28;20120;-43
2020/12/05 10:07:36;;;;;;;6.43;5.30;;;3.80;93.90;;;;;;5047089;28;20468;-42
2020/12/05 10:10:02;;;;;;;5.85;4.88;;;3.80;93.80;;;;;;5046727;28;20027;-42
2020/12/05 10:12:28;;;;;;;7.15;5.53;;;3.90;93.70;;;;;;5050338;28;20047;-42
2020/12/05 10:14:53;;;;;;;5.53;4.93;;;3.90;93.60;;;;;;5066598;28;20775;-43
2020/12/05 10:17:19;;;;;;;5.72;4.47;;;4.00;93.60;;;;;;5066495;28;20031;-42
2020/12/05 10:19:44;;;;;;;6.97;5.50;;;4.00;93.60;;;;;;5067291;28;20036;-44
2020/12/05 10:22:10;;;;;;;7.38;5.25;;;4.10;93.60;;;;;;5068693;28;20024;-42
2020/12/05 10:24:35;;;;;;;6.75;5.10;;;4.10;93.60;;;;;;5070471;28;20036;-43
2020/12/05 10:27:01;;;;;;;6.50;4.90;;;4.20;93.50;;;;;;5070391;28;20415;-42
2020/12/05 10:29:26;;;;;;;5.95;4.90;;;4.20;93.50;;;;;;5069252;28;20478;-42
2020/12/05 10:31:53;;;;;;;5.60;4.97;;;4.20;93.40;;;;;;5066994;28;20035;-44
2020/12/05 10:34:20;;;;;;;6.30;5.30;;;4.30;93.40;;;;;;5069468;28;20028;-42
2020/12/05 10:36:46;;;;;;;6.38;5.07;;;4.40;93.30;;;;;;5069254;28;20107;-45
2020/12/05 10:39:12;;;;;;;5.40;4.70;;;4.40;93.30;;;;;;5069172;28;20107;-43
2020/12/05 10:41:38;;;;;;;6.70;5.05;;;4.40;93.30;;;;;;5069973;28;20036;-43
2020/12/05 10:44:08;;;;;;;6.45;5.18;;;4.40;93.30;;;;;;5068933;28;20056;-42
2020/12/05 10:46:39;;;;;;;7.93;6.40;;;4.40;93.20;;;;;;5069751;28;20036;-42
2020/12/05 10:49:05;;;;;;;8.18;6.18;;;4.50;93.30;;;;;;5069761;28;20028;-42
2020/12/05 10:51:30;;;;;;;6.45;5.70;;;4.50;93.30;;;;;;5068427;28;20028;-42
2020/12/05 10:53:56;;;;;;;5.97;5.15;;;4.50;93.20;;;;;;5070307;28;20028;-42
2020/12/05 10:56:24;;;;;;;6.75;5.35;;;4.60;93.20;;;;;;5069225;28;20029;-42
2020/12/05 10:58:50;;;;;;;6.10;5.22;;;4.50;93.20;;;;;;5069136;28;20032;-43
2020/12/05 11:01:15;;;;;;;4.57;4.07;;;4.60;93.20;;;;;;5067865;28;20032;-42
2020/12/05 11:03:41;;;;;;;4.97;4.35;;;4.60;93.20;;;;;;5069924;28;20032;-43
2020/12/05 11:06:06;;;;;;;5.78;4.95;;;4.60;93.20;;;;;;5069092;28;20119;-43
2020/12/05 11:08:32;;;;;;;6.60;4.65;;;4.60;93.20;;;;;;5070086;28;20017;-43
2020/12/05 11:10:57;;;;;;;5.18;4.65;;;4.60;93.20;;;;;;5070373;28;20047;-42
2020/12/05 11:13:23;;;;;;;6.53;5.50;;;4.70;93.20;;;;;;5069119;28;20020;-43
2020/12/05 11:15:48;;;;;;;6.28;5.13;;;4.70;93.10;;;;;;5069875;28;20487;-42
2020/12/05 11:18:14;;;;;;;5.20;4.70;;;4.70;93.10;;;;;;5069679;28;20036;-43
2020/12/05 11:20:39;;;;;;;8.45;5.72;;;4.80;93.10;;;;;;5068866;28;20021;-41
2020/12/05 11:23:05;;;;;;;7.43;5.22;;;4.80;93.10;;;;;;5069612;28;20489;-42
2020/12/05 11:25:30;;;;;;;6.32;5.30;;;4.90;93.10;;;;;;5069071;28;20047;-42
2020/12/05 11:27:56;;;;;;;5.53;4.90;;;4.90;93.00;;;;;;5058935;28;20021;-42
2020/12/05 11:30:21;;;;;;;5.10;4.60;;;5.10;92.90;;;;;;5048758;28;20099;-42
2020/12/05 11:32:47;;;;;;;5.10;4.50;;;5.20;92.90;;;;;;5048893;28;20533;-42
2020/12/05 11:35:13;;;;;;;4.30;3.70;;;5.30;92.80;;;;;;5051437;28;20574;-42
2020/12/05 11:37:38;;;;;;;5.03;3.88;;;5.50;92.70;;;;;;5060477;28;20025;-42
2020/12/05 11:40:04;;;;;;;4.95;4.18;;;5.60;92.40;;;;;;5057056;28;20031;-41
2020/12/05 11:42:33;;;;;;;6.88;5.03;;;5.80;92.10;;;;;;5059259;28;20606;-43
2020/12/05 11:44:59;;;;;;;7.40;5.07;;;5.90;91.80;;;;;;5058980;28;20053;-43
2020/12/05 11:47:25;;;;;;;6.70;4.47;;;6.00;91.40;;;;;;5053846;28;20926;-44
2020/12/05 11:49:51;;;;;;;6.15;4.18;;;6.00;91.10;;;;;;5048882;28;20027;-43
2020/12/05 11:52:17;;;;;;;4.25;3.85;;;6.00;90.80;;;;;;5048210;28;20021;-43
2020/12/05 11:54:42;;;;;;;4.80;3.67;;;6.00;91.00;;;;;;5065859;28;20024;-42
2020/12/05 11:57:08;;;;;;;5.68;4.25;;;5.90;90.70;;;;;;5067564;28;20052;-42
2020/12/05 11:59:33;;;;;;;6.15;3.50;;;6.00;90.80;;;;;;5068117;28;20417;-44
2020/12/05 12:01:59;;;;;;;5.88;4.10;;;6.00;90.50;;;;;;5067679;28;20036;-43
2020/12/05 12:04:24;;;;;;;5.15;3.63;;;6.00;90.30;;;;;;5056496;28;20033;-42
2020/12/05 12:06:50;;;;;;;5.45;3.95;;;6.00;90.50;;;;;;5068858;28;20079;-42
2020/12/05 12:09:15;;;;;;;6.28;3.88;;;6.00;90.00;;;;;;5067705;28;20031;-42
2020/12/05 12:11:41;;;;;;;5.32;3.78;;;6.00;90.00;;;;;;5068548;28;20510;-43
2020/12/05 12:14:07;;;;;;;4.63;3.35;;;6.00;89.70;;;;;;5069340;28;20025;-43
2020/12/05 12:16:32;;;;;;;5.50;4.15;;;6.00;90.10;;;;;;5069731;28;20021;-42
2020/12/05 12:18:58;;;;;;;6.07;3.83;;;6.00;88.90;;;;;;5068630;28;20114;-43
2020/12/05 12:21:27;;;;;;;4.80;3.25;;;6.10;90.00;;;;;;5068245;28;20044;-42
2020/12/05 12:23:52;;;;;;;3.72;3.33;;;6.10;90.00;;;;;;5067947;28;20025;-42
2020/12/05 12:26:18;;;;;;;4.18;3.28;;;6.20;89.80;;;;;;5067900;28;20044;-43
2020/12/05 12:28:44;;;;;;;4.05;3.55;;;6.20;90.00;;;;;;5068590;28;20044;-43
2020/12/05 12:31:10;;;;;;;3.90;3.47;;;6.30;89.80;;;;;;5063735;28;20028;-41
2020/12/05 12:33:38;;;;;;;3.92;3.53;;;6.30;89.60;;;;;;5048493;28;20108;-42
2020/12/05 12:36:04;;;;;;;4.53;3.10;;;6.30;88.70;;;;;;5059134;28;20024;-42
2020/12/05 12:38:29;;;;;;;5.50;3.90;;;6.30;89.00;;;;;;5067842;28;20025;-43
2020/12/05 12:40:55;;;;;;;5.22;3.40;;;6.30;88.10;;;;;;5068378;28;20598;-43
2020/12/05 12:43:20;;;;;;;4.90;2.97;;;6.30;88.30;;;;;;5066895;28;20048;-42
2020/12/05 12:45:46;;;;;;;4.93;3.95;;;6.40;88.90;;;;;;5067855;28;20031;-43
2020/12/05 12:50:38;;;;;;;4.68;3.40;;;6.50;89.00;;;;;;5067800;28;20484;-43
2020/12/05 12:53:04;;;;;;;4.90;3.47;;;6.50;89.10;;;;;;5068137;28;20027;-43
2020/12/05 12:55:32;;;;;;;4.45;3.72;;;6.60;88.70;;;;;;5067717;28;20058;-42
2020/12/05 12:58:08;;;;;;;4.55;3.42;;;6.70;88.30;;;;;;5067549;28;20044;-42
2020/12/05 13:00:33;;;;;;;4.38;3.35;;;6.70;88.30;;;;;;5068172;28;20028;-43
2020/12/05 13:02:59;;;;;;;4.32;3.42;;;6.70;88.00;;;;;;5067976;28;20549;-43